createdAt,value
2022-12-05T00:00:19.112Z,17.02
2022-12-05T00:01:24.147Z,16.75
2022-12-05T00:02:27.352Z,18.40
2022-12-05T00:03:29.478Z,18.15
2022-12-05T00:04:32.564Z,17.70
2022-12-05T00:05:40.155Z,17.85
2022-12-05T00:06:44.015Z,17.63
2022-12-05T00:07:46.127Z,17.50
2022-12-05T00:08:49.990Z,17.75
2022-12-05T00:09:53.103Z,17.00
2022-12-05T00:10:55.113Z,17.90
2022-12-05T00:11:58.376Z,17.67
2022-12-05T00:13:00.427Z,17.30
2022-12-05T00:14:05.175Z,17.95
2022-12-05T00:15:12.410Z,17.38
2022-12-05T00:16:20.593Z,17.70
2022-12-05T00:17:23.007Z,18.02
2022-12-05T00:18:26.040Z,17.80
2022-12-05T00:19:28.191Z,18.23
2022-12-05T00:20:31.263Z,18.10
2022-12-05T00:21:37.729Z,17.67
2022-12-05T00:22:39.732Z,17.20
2022-12-05T00:23:43.395Z,16.98
2022-12-05T00:24:45.439Z,18.73
2022-12-05T00:25:48.478Z,17.75
2022-12-05T00:26:50.831Z,18.13
2022-12-05T00:27:54.038Z,17.77
2022-12-05T00:28:57.098Z,17.90
2022-12-05T00:30:00.428Z,18.30
2022-12-05T00:31:03.697Z,18.25
2022-12-05T00:32:07.284Z,18.10
2022-12-05T00:33:09.406Z,17.85
2022-12-05T00:34:12.593Z,17.80
2022-12-05T00:35:14.764Z,18.15
2022-12-05T00:36:20.398Z,18.45
2022-12-05T00:37:24.194Z,18.10
2022-12-05T00:38:27.507Z,18.15
2022-12-05T00:39:29.589Z,17.80
2022-12-05T00:40:32.744Z,18.33
2022-12-05T00:41:35.385Z,18.02
2022-12-05T00:42:38.558Z,18.52
2022-12-05T00:43:40.917Z,18.17
2022-12-05T00:44:44.074Z,18.23
2022-12-05T00:45:46.265Z,16.95
2022-12-05T00:46:49.463Z,18.77
2022-12-05T00:47:51.944Z,19.13
2022-12-05T00:48:56.200Z,18.80
2022-12-05T00:49:58.618Z,18.13
2022-12-05T00:51:03.219Z,17.40
2022-12-05T00:52:05.516Z,18.15
2022-12-05T00:53:10.097Z,17.35
2022-12-05T00:54:14.261Z,18.30
2022-12-05T00:55:17.524Z,17.40
2022-12-05T00:56:21.274Z,18.63
2022-12-05T00:57:24.441Z,18.75
2022-12-05T00:58:27.304Z,18.38
2022-12-05T00:59:30.448Z,18.00
2022-12-05T01:00:32.674Z,17.70
2022-12-05T01:01:38.069Z,17.13
2022-12-05T01:02:40.410Z,18.27
2022-12-05T01:03:44.737Z,17.75
2022-12-05T01:04:47.897Z,18.00
2022-12-05T01:05:50.027Z,18.38
2022-12-05T01:06:57.357Z,17.83
2022-12-05T01:07:59.486Z,18.48
2022-12-05T01:09:05.372Z,19.15
2022-12-05T01:10:08.407Z,17.35
2022-12-05T01:11:14.767Z,18.27
2022-12-05T01:12:16.930Z,19.05
2022-12-05T01:13:20.032Z,18.65
2022-12-05T01:14:26.656Z,18.90
2022-12-05T01:15:28.798Z,18.83
2022-12-05T01:16:34.609Z,18.17
2022-12-05T01:17:36.858Z,18.08
2022-12-05T01:18:40.086Z,18.25
2022-12-05T01:19:43.238Z,18.23
2022-12-05T01:20:45.970Z,18.80
2022-12-05T01:21:49.301Z,18.30
2022-12-05T01:22:52.177Z,17.52
2022-12-05T01:23:55.927Z,18.48
2022-12-05T01:24:59.654Z,17.50
2022-12-05T01:26:07.419Z,17.75
2022-12-05T01:27:09.543Z,19.00
2022-12-05T01:28:13.657Z,18.27
2022-12-05T01:29:18.972Z,17.88
2022-12-05T01:30:22.252Z,17.77
2022-12-05T01:31:25.980Z,18.38
2022-12-05T01:32:29.142Z,17.73
2022-12-05T01:33:31.308Z,18.65
2022-12-05T01:34:34.486Z,18.33
2022-12-05T01:35:39.315Z,17.40
2022-12-05T01:36:42.580Z,17.88
2022-12-05T01:37:44.704Z,17.55
2022-12-05T01:38:47.906Z,17.73
2022-12-05T01:39:50.154Z,16.95
2022-12-05T01:41:03.321Z,18.63
2022-12-05T01:42:05.739Z,18.45
2022-12-05T01:43:15.461Z,17.55
2022-12-05T01:44:55.838Z,17.15
2022-12-05T01:45:58.385Z,16.40
2022-12-05T01:47:01.590Z,16.33
2022-12-05T01:48:08.104Z,16.55
2022-12-05T01:49:15.188Z,17.08
2022-12-05T01:50:17.417Z,16.75
2022-12-05T01:51:20.909Z,16.55
2022-12-05T01:52:27.007Z,17.33
2022-12-05T01:53:31.827Z,16.85
2022-12-05T01:54:36.003Z,15.95
2022-12-05T01:55:39.935Z,16.83
2022-12-05T01:56:48.549Z,16.30
2022-12-05T01:57:51.857Z,16.25
2022-12-05T01:58:56.124Z,16.73
2022-12-05T02:00:03.494Z,16.13
2022-12-05T02:01:18.108Z,16.67
2022-12-05T02:02:21.057Z,16.00
2022-12-05T02:03:24.589Z,16.92
2022-12-05T02:04:27.761Z,17.45
2022-12-05T02:05:33.017Z,16.63
2022-12-05T02:06:35.272Z,16.80
2022-12-05T02:07:41.038Z,16.95
2022-12-05T02:08:43.795Z,17.27
2022-12-05T02:09:48.749Z,17.58
2022-12-05T02:10:53.406Z,16.50
2022-12-05T02:12:01.984Z,16.45
2022-12-05T02:13:14.079Z,16.13
2022-12-05T02:14:27.523Z,16.45
2022-12-05T02:15:40.585Z,16.42
2022-12-05T02:16:57.452Z,16.85
2022-12-05T02:18:13.274Z,17.13
2022-12-05T02:19:50.301Z,16.25
2022-12-05T02:21:14.896Z,15.40
2022-12-05T02:22:54.830Z,16.30
2022-12-05T02:24:33.571Z,16.15
2022-12-05T02:26:15.065Z,17.08
2022-12-05T02:27:39.371Z,16.40
2022-12-05T02:28:58.232Z,16.42
2022-12-05T02:30:08.087Z,17.55
2022-12-05T02:31:17.632Z,16.95
2022-12-05T02:32:30.391Z,18.17
2022-12-05T02:33:38.261Z,17.27
2022-12-05T02:34:47.996Z,18.17
2022-12-05T02:35:56.721Z,18.23
2022-12-05T02:37:05.994Z,18.08
2022-12-05T02:38:20.259Z,19.08
2022-12-05T02:39:26.465Z,18.25
2022-12-05T02:40:35.979Z,18.45
2022-12-05T02:41:44.892Z,19.25
2022-12-05T02:42:55.676Z,18.85
2022-12-05T02:44:03.591Z,17.85
2022-12-05T02:45:11.310Z,18.48
2022-12-05T02:46:17.772Z,18.42
2022-12-05T02:47:26.217Z,18.38
2022-12-05T02:48:29.243Z,19.65
2022-12-05T02:49:36.653Z,18.60
2022-12-05T02:50:40.668Z,18.65
2022-12-05T02:51:48.185Z,19.85
2022-12-05T02:52:54.490Z,20.48
2022-12-05T02:54:02.170Z,20.20
2022-12-05T02:55:07.553Z,19.05
2022-12-05T02:56:11.820Z,21.02
2022-12-05T02:57:15.875Z,19.88
2022-12-05T02:58:24.771Z,19.15
2022-12-05T02:59:27.202Z,19.42
2022-12-05T03:00:31.719Z,20.30
2022-12-05T03:01:34.067Z,19.52
2022-12-05T03:02:41.343Z,20.60
2022-12-05T03:03:44.530Z,19.48
2022-12-05T03:04:47.717Z,19.33
2022-12-05T03:05:57.263Z,20.20
2022-12-05T03:07:06.326Z,20.90
2022-12-05T03:08:13.984Z,18.92
2022-12-05T03:09:23.084Z,19.85
2022-12-05T03:10:29.697Z,20.10
2022-12-05T03:11:39.422Z,20.17
2022-12-05T03:12:48.935Z,19.88
2022-12-05T03:13:56.859Z,20.23
2022-12-05T03:15:03.852Z,19.80
2022-12-05T03:16:14.168Z,19.80
2022-12-05T03:17:21.760Z,19.35
2022-12-05T03:18:29.995Z,18.48
2022-12-05T03:19:40.964Z,19.38
2022-12-05T03:20:49.266Z,18.40
2022-12-05T03:21:58.400Z,18.63
2022-12-05T03:23:04.996Z,19.15
2022-12-05T03:24:10.566Z,19.33
2022-12-05T03:25:15.648Z,19.42
2022-12-05T03:26:32.351Z,19.98
2022-12-05T03:27:46.465Z,18.40
2022-12-05T03:28:58.542Z,18.52
2022-12-05T03:30:07.807Z,18.95
2022-12-05T03:31:14.754Z,19.48
2022-12-05T03:32:24.157Z,18.70
2022-12-05T03:33:29.943Z,20.15
2022-12-05T03:34:43.569Z,19.70
2022-12-05T03:35:57.258Z,18.42
2022-12-05T03:37:07.298Z,19.85
2022-12-05T03:38:13.549Z,18.80
2022-12-05T03:39:22.806Z,18.63
2022-12-05T03:40:31.732Z,19.77
2022-12-05T03:41:42.061Z,19.48
2022-12-05T03:42:53.978Z,20.52
2022-12-05T03:44:00.220Z,18.77
2022-12-05T03:45:07.435Z,18.83
2022-12-05T03:46:16.272Z,18.60
2022-12-05T03:47:24.676Z,19.88
2022-12-05T03:48:32.983Z,19.33
2022-12-05T03:49:38.626Z,17.98
2022-12-05T03:50:45.441Z,19.20
2022-12-05T03:51:54.133Z,18.70
2022-12-05T03:54:28.044Z,18.77
2022-12-05T03:55:34.814Z,18.50
2022-12-05T03:56:43.746Z,18.70
2022-12-05T03:57:51.403Z,18.85
2022-12-05T03:59:00.174Z,19.58
2022-12-05T04:00:08.863Z,19.70
2022-12-05T04:01:16.654Z,18.85
2022-12-05T04:02:29.016Z,19.60
2022-12-05T04:03:40.416Z,18.85
2022-12-05T04:04:49.288Z,20.23
2022-12-05T04:05:56.193Z,20.30
2022-12-05T04:07:01.246Z,20.17
2022-12-05T04:08:08.046Z,20.60
2022-12-05T04:09:17.113Z,19.83
2022-12-05T04:10:26.412Z,21.10
2022-12-05T04:11:33.052Z,20.67
2022-12-05T04:12:38.127Z,20.33
2022-12-05T04:13:45.847Z,20.23
2022-12-05T04:14:50.626Z,20.45
2022-12-05T04:16:16.573Z,21.23
2022-12-05T04:17:28.686Z,21.05
2022-12-05T04:18:32.820Z,20.75
2022-12-05T04:20:00.467Z,21.00
2022-12-05T04:21:22.980Z,22.10
2022-12-05T04:22:27.447Z,21.92
2022-12-05T04:23:29.753Z,22.25
2022-12-05T04:24:51.162Z,21.98
2022-12-05T04:26:04.291Z,22.30
2022-12-05T04:27:29.323Z,22.02
2022-12-05T04:28:38.003Z,21.63
2022-12-05T04:29:46.178Z,22.90
2022-12-05T04:30:56.495Z,23.45
2022-12-05T04:32:06.193Z,23.88
2022-12-05T04:33:16.340Z,22.00
2022-12-05T04:34:21.685Z,22.75
2022-12-05T04:35:29.873Z,21.15
2022-12-05T04:36:35.764Z,23.58
2022-12-05T04:37:41.766Z,22.50
2022-12-05T04:38:49.996Z,23.85
2022-12-05T04:39:59.509Z,22.92
2022-12-05T04:41:05.613Z,23.33
2022-12-05T04:42:12.250Z,24.25
2022-12-05T04:43:16.485Z,22.90
2022-12-05T04:44:24.012Z,23.13
2022-12-05T04:45:27.377Z,24.35
2022-12-05T04:46:30.609Z,23.45
2022-12-05T04:47:39.082Z,23.05
2022-12-05T04:48:48.556Z,22.85
2022-12-05T04:49:53.967Z,24.00
2022-12-05T04:50:58.802Z,22.67
2022-12-05T04:52:04.680Z,24.15
2022-12-05T04:53:10.836Z,22.77
2022-12-05T04:54:17.528Z,23.27
2022-12-05T04:55:26.135Z,22.95
2022-12-05T04:56:33.354Z,23.48
2022-12-05T04:57:43.213Z,23.92
2022-12-05T04:58:45.686Z,23.75
2022-12-05T04:59:49.406Z,24.77
2022-12-05T05:01:00.024Z,24.63
2022-12-05T05:02:07.422Z,25.73
2022-12-05T05:03:18.130Z,24.25
2022-12-05T05:04:26.251Z,24.48
2022-12-05T05:05:31.703Z,23.90
2022-12-05T05:06:37.011Z,24.48
2022-12-05T05:07:45.817Z,24.02
2022-12-05T05:08:50.002Z,22.70
2022-12-05T05:09:53.471Z,25.88
2022-12-05T05:11:04.454Z,24.55
2022-12-05T05:12:08.415Z,24.25
2022-12-05T05:13:10.744Z,24.52
2022-12-05T05:14:13.921Z,23.98
2022-12-05T05:15:16.100Z,23.65
2022-12-05T05:16:21.546Z,24.00
2022-12-05T05:17:23.720Z,23.00
2022-12-05T05:18:26.929Z,23.90
2022-12-05T05:19:30.541Z,22.33
2022-12-05T05:20:33.729Z,23.67
2022-12-05T05:21:37.825Z,24.80
2022-12-05T05:22:41.006Z,24.83
2022-12-05T05:23:44.162Z,23.55
2022-12-05T05:24:47.365Z,23.05
2022-12-05T05:25:53.791Z,23.25
2022-12-05T05:26:57.570Z,24.08
2022-12-05T05:27:59.882Z,23.65
2022-12-05T05:29:03.446Z,23.50
2022-12-05T05:30:06.910Z,23.88
2022-12-05T05:31:10.707Z,25.05
2022-12-05T05:32:13.949Z,24.02
2022-12-05T05:33:16.364Z,24.38
2022-12-05T05:34:19.544Z,25.10
2022-12-05T05:35:23.272Z,23.75
2022-12-05T05:36:27.725Z,24.48
2022-12-05T05:37:29.890Z,23.05
2022-12-05T05:38:36.194Z,23.55
2022-12-05T05:39:38.360Z,24.40
2022-12-05T05:40:41.539Z,23.80
2022-12-05T05:41:45.129Z,22.85
2022-12-05T05:42:48.942Z,23.98
2022-12-05T05:43:53.134Z,23.70
2022-12-05T05:44:55.336Z,24.40
2022-12-05T05:45:58.778Z,25.08
2022-12-05T05:47:01.081Z,24.38
2022-12-05T05:48:04.454Z,24.98
2022-12-05T05:49:06.714Z,24.90
2022-12-05T05:50:13.854Z,24.52
2022-12-05T05:51:21.343Z,25.10
2022-12-05T05:52:24.521Z,24.17
2022-12-05T05:53:27.746Z,25.30
2022-12-05T05:54:29.998Z,25.65
2022-12-05T05:55:33.197Z,26.55
2022-12-05T05:56:35.411Z,24.95
2022-12-05T05:57:38.622Z,26.40
2022-12-05T05:58:41.555Z,26.00
2022-12-05T05:59:44.904Z,25.08
2022-12-05T06:00:47.161Z,27.05
2022-12-05T06:01:50.388Z,25.20
2022-12-05T06:02:53.914Z,25.55
2022-12-05T06:03:56.621Z,26.38
2022-12-05T06:04:59.935Z,25.48
2022-12-05T06:06:04.919Z,26.63
2022-12-05T06:07:09.500Z,26.00
2022-12-05T06:08:12.764Z,25.60
2022-12-05T06:09:15.014Z,26.98
2022-12-05T06:10:18.258Z,27.05
2022-12-05T06:11:25.950Z,26.02
2022-12-05T06:12:29.818Z,26.52
2022-12-05T06:13:31.981Z,26.92
2022-12-05T06:14:35.529Z,26.38
2022-12-05T06:15:37.832Z,26.80
2022-12-05T06:16:41.168Z,27.98
2022-12-05T06:17:43.435Z,26.73
2022-12-05T06:18:46.632Z,27.35
2022-12-05T06:19:48.905Z,27.92
2022-12-05T06:20:55.488Z,26.55
2022-12-05T06:21:57.678Z,26.98
2022-12-05T06:23:02.280Z,27.15
2022-12-05T06:24:05.103Z,27.33
2022-12-05T06:25:10.159Z,27.15
2022-12-05T06:26:15.159Z,26.23
2022-12-05T06:27:18.335Z,26.75
2022-12-05T06:28:22.761Z,27.00
2022-12-05T06:29:28.255Z,27.05
2022-12-05T06:30:33.313Z,27.60
2022-12-05T06:31:36.745Z,26.25
2022-12-05T06:32:38.925Z,26.60
2022-12-05T06:33:42.292Z,25.88
2022-12-05T06:34:44.478Z,27.77
2022-12-05T06:35:47.892Z,27.50
2022-12-05T06:36:50.024Z,25.85
2022-12-05T06:37:53.239Z,28.20
2022-12-05T06:38:58.040Z,26.55
2022-12-05T06:40:01.368Z,27.27
2022-12-05T06:41:05.948Z,26.55
2022-12-05T06:42:09.189Z,26.08
2022-12-05T06:43:11.719Z,25.50
2022-12-05T06:44:14.971Z,26.92
2022-12-05T06:45:17.345Z,27.00
2022-12-05T06:46:20.673Z,27.10
2022-12-05T06:47:29.938Z,26.10
2022-12-05T06:48:32.136Z,27.75
2022-12-05T06:49:38.101Z,26.25
2022-12-05T06:50:40.582Z,28.80
2022-12-05T06:51:44.370Z,27.35
2022-12-05T06:52:46.569Z,27.45
2022-12-05T06:53:49.904Z,26.02
2022-12-05T06:54:54.481Z,26.80
2022-12-05T06:55:57.495Z,27.85
2022-12-05T06:57:00.704Z,27.58
2022-12-05T06:58:02.854Z,26.25
2022-12-05T06:59:06.141Z,26.13
2022-12-05T07:00:27.653Z,25.98
2022-12-05T07:01:39.247Z,28.05
2022-12-05T07:02:43.203Z,25.80
2022-12-05T07:03:45.497Z,26.48
2022-12-05T07:04:48.738Z,26.65
2022-12-05T07:05:50.905Z,27.65
2022-12-05T07:06:55.624Z,27.90
2022-12-05T07:07:57.859Z,25.98
2022-12-05T07:09:01.334Z,28.77
2022-12-05T07:10:07.708Z,27.55
2022-12-05T07:11:10.000Z,28.13
2022-12-05T07:12:14.294Z,29.25
2022-12-05T07:13:16.560Z,29.08
2022-12-05T07:14:45.706Z,27.98
2022-12-05T07:15:43.302Z,26.67
2022-12-05T07:16:46.021Z,27.83
2022-12-05T07:17:49.363Z,27.95
2022-12-05T07:18:51.580Z,27.70
2022-12-05T07:19:55.711Z,27.55
2022-12-05T07:21:15.455Z,28.15
2022-12-05T07:22:19.228Z,26.92
2022-12-05T07:23:21.513Z,27.70
2022-12-05T07:24:25.074Z,27.15
2022-12-05T07:25:28.628Z,27.20
2022-12-05T07:26:31.872Z,28.02
2022-12-05T07:27:34.303Z,27.27
2022-12-05T07:28:37.850Z,27.67
2022-12-05T07:29:41.133Z,27.42
2022-12-05T07:30:43.341Z,27.15
2022-12-05T07:31:46.690Z,26.55
2022-12-05T07:32:48.984Z,27.52
2022-12-05T07:33:52.445Z,27.73
2022-12-05T07:34:55.700Z,27.45
2022-12-05T07:36:02.862Z,28.15
2022-12-05T07:37:06.465Z,26.92
2022-12-05T07:38:08.679Z,27.83
2022-12-05T07:39:11.904Z,27.45
2022-12-05T07:40:14.931Z,26.48
2022-12-05T07:41:23.344Z,26.50
2022-12-05T07:42:25.637Z,27.00
2022-12-05T07:43:28.816Z,25.05
2022-12-05T07:44:31.396Z,25.58
2022-12-05T07:45:35.713Z,24.95
2022-12-05T07:46:39.767Z,25.52
2022-12-05T07:47:42.077Z,24.67
2022-12-05T07:48:45.305Z,25.92
2022-12-05T07:49:48.492Z,25.00
2022-12-05T07:50:51.691Z,25.13
2022-12-05T07:51:55.250Z,25.60
2022-12-05T07:52:57.420Z,25.73
2022-12-05T07:54:01.479Z,25.42
2022-12-05T07:55:05.359Z,25.55
2022-12-05T07:56:10.498Z,26.25
2022-12-05T07:57:15.111Z,26.02
2022-12-05T07:58:17.353Z,25.13
2022-12-05T07:59:20.634Z,25.23
2022-12-05T08:00:22.988Z,25.98
2022-12-05T08:01:28.258Z,26.15
2022-12-05T08:02:30.615Z,26.98
2022-12-05T08:03:33.853Z,28.50
2022-12-05T08:04:36.125Z,27.58
2022-12-05T08:05:39.298Z,28.13
2022-12-05T08:06:41.655Z,27.77
2022-12-05T08:07:45.131Z,28.15
2022-12-05T08:08:50.150Z,27.08
2022-12-05T08:09:53.328Z,28.45
2022-12-05T08:10:55.636Z,27.98
2022-12-05T08:11:58.909Z,27.90
2022-12-05T08:13:03.604Z,27.95
2022-12-05T08:14:07.625Z,27.02
2022-12-05T08:15:13.970Z,26.52
2022-12-05T08:16:18.437Z,26.88
2022-12-05T08:17:21.728Z,26.42
2022-12-05T08:18:27.351Z,27.15
2022-12-05T08:19:30.918Z,27.00
2022-12-05T08:20:34.113Z,26.92
2022-12-05T08:21:36.318Z,27.08
2022-12-05T08:22:39.524Z,26.77
2022-12-05T08:23:43.334Z,27.70
2022-12-05T08:24:47.924Z,26.15
2022-12-05T08:25:52.829Z,25.75
2022-12-05T08:26:56.019Z,26.90
2022-12-05T08:27:58.235Z,26.88
2022-12-05T08:29:05.322Z,25.73
2022-12-05T08:30:09.484Z,23.58
2022-12-05T08:31:13.403Z,25.27
2022-12-05T08:32:16.662Z,26.67
2022-12-05T08:33:18.900Z,27.15
2022-12-05T08:34:22.200Z,25.27
2022-12-05T08:35:25.444Z,25.90
2022-12-05T08:36:28.668Z,25.02
2022-12-05T08:37:31.853Z,24.98
2022-12-05T08:38:36.135Z,24.40
2022-12-05T08:39:39.047Z,24.73
2022-12-05T08:40:42.372Z,24.85
2022-12-05T08:41:45.970Z,25.00
2022-12-05T08:42:49.277Z,24.90
2022-12-05T08:43:51.504Z,24.23
2022-12-05T08:44:56.527Z,24.40
2022-12-05T08:45:59.867Z,24.27
2022-12-05T08:47:03.355Z,24.13
2022-12-05T08:48:07.232Z,24.38
2022-12-05T08:49:11.710Z,25.20
2022-12-05T08:50:14.913Z,25.10
2022-12-05T08:51:17.121Z,24.08
2022-12-05T08:52:21.893Z,24.30
2022-12-05T08:53:24.282Z,24.55
2022-12-05T08:54:27.872Z,23.30
2022-12-05T08:55:31.416Z,24.33
2022-12-05T08:56:33.757Z,24.88
2022-12-05T08:57:37.834Z,25.15
2022-12-05T08:58:40.838Z,24.45
2022-12-05T08:59:44.071Z,25.73
2022-12-05T09:00:47.714Z,24.55
2022-12-05T09:01:51.910Z,24.48
2022-12-05T09:02:55.317Z,23.35
2022-12-05T09:03:57.875Z,26.08
2022-12-05T09:05:13.688Z,25.15
2022-12-05T09:06:26.500Z,24.80
2022-12-05T09:07:29.733Z,24.92
2022-12-05T09:08:32.053Z,25.60
2022-12-05T09:09:35.477Z,24.17
2022-12-05T09:10:38.046Z,23.35
2022-12-05T09:11:46.679Z,24.27
2022-12-05T09:12:50.580Z,24.05
2022-12-05T09:13:56.065Z,24.45
2022-12-05T09:14:59.565Z,25.25
2022-12-05T09:16:07.575Z,23.60
2022-12-05T09:17:10.875Z,24.23
2022-12-05T09:18:15.292Z,22.85
2022-12-05T09:19:21.674Z,24.80
2022-12-05T09:20:24.010Z,24.42
2022-12-05T09:21:29.784Z,25.70
2022-12-05T09:22:33.232Z,24.35
2022-12-05T09:23:37.054Z,25.42
2022-12-05T09:24:40.326Z,25.52
2022-12-05T09:25:42.575Z,24.98
2022-12-05T09:26:45.888Z,24.60
2022-12-05T09:27:49.101Z,25.55
2022-12-05T09:28:53.275Z,24.15
2022-12-05T09:29:55.573Z,24.23
2022-12-05T09:30:59.337Z,24.80
2022-12-05T09:32:04.144Z,23.90
2022-12-05T09:33:06.798Z,24.05
2022-12-05T09:34:14.260Z,24.30
2022-12-05T09:35:18.117Z,24.88
2022-12-05T09:36:22.683Z,24.45
2022-12-05T09:37:41.158Z,23.58
2022-12-05T09:38:44.018Z,24.17
2022-12-05T09:39:47.251Z,24.42
2022-12-05T09:41:00.429Z,23.80
2022-12-05T09:42:30.767Z,23.98
2022-12-05T09:43:43.671Z,23.10
2022-12-05T09:45:04.383Z,23.65
2022-12-05T09:46:21.008Z,23.92
2022-12-05T09:47:39.753Z,23.83
2022-12-05T09:48:44.947Z,21.83
2022-12-05T09:49:52.630Z,24.10
2022-12-05T09:51:00.291Z,25.15
2022-12-05T09:52:04.968Z,24.55
2022-12-05T09:53:25.492Z,24.50
2022-12-05T09:54:28.502Z,24.02
2022-12-05T09:55:39.409Z,23.70
2022-12-05T09:56:46.265Z,24.45
2022-12-05T09:57:53.010Z,24.58
2022-12-05T09:58:58.033Z,22.85
2022-12-05T10:00:01.730Z,22.30
2022-12-05T10:01:23.428Z,23.55
2022-12-05T10:02:40.953Z,21.52
2022-12-05T10:03:48.711Z,22.42
2022-12-05T10:05:00.643Z,22.38
2022-12-05T10:06:15.151Z,22.23
2022-12-05T10:07:28.391Z,20.98
2022-12-05T10:08:41.709Z,21.85
2022-12-05T10:09:59.241Z,20.88
2022-12-05T10:11:04.994Z,21.58
2022-12-05T10:12:20.796Z,21.15
2022-12-05T10:13:41.705Z,21.15
2022-12-05T10:14:57.039Z,19.65
2022-12-05T10:16:04.412Z,19.65
2022-12-05T10:17:16.217Z,20.52
2022-12-05T10:18:33.283Z,20.25
2022-12-05T10:19:42.987Z,20.67
2022-12-05T10:20:52.246Z,19.60
2022-12-05T10:22:01.328Z,20.38
2022-12-05T10:23:23.174Z,20.60
2022-12-05T10:24:40.885Z,19.92
2022-12-05T10:25:46.328Z,19.67
2022-12-05T10:26:56.626Z,20.25
2022-12-05T10:28:07.528Z,20.92
2022-12-05T10:29:21.994Z,19.25
2022-12-05T10:30:26.726Z,18.80
2022-12-05T10:31:33.833Z,18.73
2022-12-05T10:32:48.345Z,19.58
2022-12-05T10:33:58.737Z,19.35
2022-12-05T10:35:16.468Z,19.20
2022-12-05T10:36:19.767Z,19.05
2022-12-05T10:37:23.345Z,19.15
2022-12-05T10:38:30.952Z,19.15
2022-12-05T10:39:33.248Z,18.65
2022-12-05T10:40:40.256Z,19.55
2022-12-05T10:41:43.509Z,18.88
2022-12-05T10:42:47.459Z,19.42
2022-12-05T10:43:54.468Z,20.13
2022-12-05T10:45:03.310Z,19.85
2022-12-05T10:46:16.867Z,18.83
2022-12-05T10:47:21.077Z,19.42
2022-12-05T10:48:24.294Z,18.80
2022-12-05T10:49:30.510Z,19.65
2022-12-05T10:50:38.320Z,19.83
2022-12-05T10:51:41.048Z,19.98
2022-12-05T10:52:44.934Z,19.25
2022-12-05T10:53:50.697Z,19.35
2022-12-05T10:54:59.295Z,19.48
2022-12-05T10:57:30.137Z,19.98
2022-12-05T10:58:32.410Z,19.42
2022-12-05T10:59:46.942Z,19.55
2022-12-05T11:00:54.014Z,19.80
2022-12-05T11:02:00.903Z,20.20
2022-12-05T11:03:05.600Z,19.90
2022-12-05T11:04:19.847Z,20.25
2022-12-05T11:05:32.682Z,19.95
2022-12-05T11:06:36.241Z,19.63
2022-12-05T11:07:49.911Z,21.48
2022-12-05T11:09:09.762Z,20.75
2022-12-05T11:10:26.690Z,20.05
2022-12-05T11:11:33.398Z,21.60
2022-12-05T11:12:40.295Z,19.65
2022-12-05T11:13:54.070Z,20.30
2022-12-05T11:15:01.024Z,21.10
2022-12-05T11:16:04.036Z,21.58
2022-12-05T11:17:07.966Z,20.88
2022-12-05T11:18:20.525Z,20.90
2022-12-05T11:19:29.079Z,21.05
2022-12-05T11:20:41.582Z,20.80
2022-12-05T11:21:44.496Z,20.35
2022-12-05T11:22:49.488Z,20.85
2022-12-05T11:23:52.711Z,21.73
2022-12-05T11:24:55.171Z,20.73
2022-12-05T11:26:00.025Z,22.52
2022-12-05T11:27:22.005Z,22.38
2022-12-05T11:28:32.352Z,21.30
2022-12-05T11:29:38.038Z,21.50
2022-12-05T11:30:40.210Z,21.60
2022-12-05T11:31:52.528Z,21.17
2022-12-05T11:33:13.108Z,20.30
2022-12-05T11:34:22.370Z,21.25
2022-12-05T11:35:27.883Z,21.88
2022-12-05T11:36:40.381Z,21.30
2022-12-05T11:37:49.418Z,21.95
2022-12-05T11:38:52.768Z,21.08
2022-12-05T11:39:56.041Z,21.35
2022-12-05T11:41:11.139Z,23.17
2022-12-05T11:42:23.682Z,21.58
2022-12-05T11:43:50.648Z,20.17
2022-12-05T11:45:18.095Z,20.23
2022-12-05T11:46:30.432Z,18.77
2022-12-05T11:47:50.471Z,19.77
2022-12-05T11:49:10.114Z,19.80
2022-12-05T11:50:26.481Z,17.63
2022-12-05T11:51:40.480Z,18.80
2022-12-05T11:52:57.862Z,18.75
2022-12-05T11:54:35.552Z,21.10
2022-12-05T11:55:46.435Z,19.30
2022-12-05T11:56:54.615Z,19.23
2022-12-05T11:58:20.452Z,20.13
2022-12-05T11:59:36.229Z,19.92
2022-12-05T12:00:51.863Z,18.55
2022-12-05T12:02:05.613Z,19.13
2022-12-05T12:03:35.486Z,18.52
2022-12-05T12:04:48.309Z,18.77
2022-12-05T12:06:05.822Z,19.63
2022-12-05T12:07:31.098Z,19.08
2022-12-05T12:08:44.071Z,18.98
2022-12-05T12:10:00.106Z,19.08
2022-12-05T12:11:15.535Z,18.52
2022-12-05T12:12:28.286Z,18.67
2022-12-05T12:13:45.422Z,19.35
2022-12-05T12:15:00.816Z,19.98
2022-12-05T12:16:14.625Z,19.08
2022-12-05T12:17:27.325Z,20.08
2022-12-05T12:19:03.921Z,19.95
2022-12-05T12:20:23.677Z,18.88
2022-12-05T12:21:39.013Z,18.70
2022-12-05T12:22:56.731Z,19.48
2022-12-05T12:24:12.587Z,19.30
2022-12-05T12:25:28.565Z,19.58
2022-12-05T12:26:42.034Z,19.23
2022-12-05T12:27:59.919Z,19.25
2022-12-05T12:29:20.210Z,19.42
2022-12-05T12:30:31.637Z,19.30
2022-12-05T12:31:51.168Z,19.05
2022-12-05T12:33:03.667Z,18.33
2022-12-05T12:34:25.548Z,18.10
2022-12-05T12:35:31.494Z,18.55
2022-12-05T12:36:40.187Z,19.30
2022-12-05T12:37:57.483Z,19.30
2022-12-05T12:39:30.904Z,19.13
2022-12-05T12:40:40.933Z,19.00
2022-12-05T12:42:07.461Z,19.85
2022-12-05T12:43:52.120Z,18.67
2022-12-05T12:45:19.642Z,19.48
2022-12-05T12:46:35.311Z,18.08
2022-12-05T12:47:51.728Z,19.23
2022-12-05T12:49:12.160Z,19.92
2022-12-05T12:50:21.347Z,18.50
2022-12-05T12:51:24.913Z,19.23
2022-12-05T12:52:36.064Z,20.27
2022-12-05T12:54:01.139Z,20.17
2022-12-05T12:55:21.866Z,18.73
2022-12-05T12:56:38.854Z,18.73
2022-12-05T12:57:58.827Z,18.83
2022-12-05T12:59:15.159Z,18.33
2022-12-05T13:00:25.978Z,19.48
2022-12-05T13:02:45.356Z,18.83
2022-12-05T13:03:53.937Z,17.23
2022-12-05T13:05:02.302Z,17.90
2022-12-05T13:06:11.761Z,18.13
2022-12-05T13:07:19.903Z,18.00
2022-12-05T13:08:28.173Z,18.55
2022-12-05T13:09:39.538Z,18.60
2022-12-05T13:10:45.510Z,18.48
2022-12-05T13:11:51.023Z,18.77
2022-12-05T13:12:57.152Z,18.48
2022-12-05T13:14:03.055Z,18.13
2022-12-05T13:15:11.767Z,18.77
2022-12-05T13:16:28.202Z,18.95
2022-12-05T13:17:33.762Z,18.45
2022-12-05T13:18:37.301Z,19.98
2022-12-05T13:19:44.163Z,18.85
2022-12-05T13:20:50.873Z,17.65
2022-12-05T13:21:57.176Z,18.25
2022-12-05T13:23:07.744Z,18.02
2022-12-05T13:24:15.196Z,19.50
2022-12-05T13:25:23.601Z,18.63
2022-12-05T13:26:27.997Z,17.40
2022-12-05T13:27:31.302Z,18.50
2022-12-05T13:28:42.003Z,18.27
2022-12-05T13:29:51.591Z,17.02
2022-12-05T13:31:06.543Z,18.33
2022-12-05T13:32:28.945Z,17.83
2022-12-05T13:33:34.848Z,17.98
2022-12-05T13:34:47.056Z,16.88
2022-12-05T13:36:10.689Z,17.27
2022-12-05T13:37:39.949Z,16.45
2022-12-05T13:39:01.054Z,17.40
2022-12-05T13:40:22.901Z,18.52
2022-12-05T13:41:58.199Z,16.88
2022-12-05T13:43:03.525Z,16.88
2022-12-05T13:44:12.519Z,18.17
2022-12-05T13:45:19.953Z,17.58
2022-12-05T13:46:29.721Z,16.95
2022-12-05T13:47:37.324Z,17.00
2022-12-05T13:48:42.731Z,17.55
2022-12-05T13:49:51.059Z,16.23
2022-12-05T13:50:59.584Z,16.88
2022-12-05T13:52:09.529Z,16.50
2022-12-05T13:53:26.051Z,12.45
2022-12-05T13:54:31.170Z,16.45
2022-12-05T13:55:38.064Z,17.55
2022-12-05T13:56:54.002Z,17.10
2022-12-05T13:57:58.158Z,16.27
2022-12-05T13:59:02.549Z,17.10
2022-12-05T14:00:26.961Z,17.05
2022-12-05T14:01:55.707Z,17.05
2022-12-05T14:03:03.408Z,17.23
2022-12-05T14:04:50.885Z,15.95
2022-12-05T14:05:55.693Z,15.98
2022-12-05T14:06:58.773Z,15.88
2022-12-05T14:08:22.106Z,17.10
2022-12-05T14:09:30.104Z,16.13
2022-12-05T14:11:11.925Z,17.00
2022-12-05T14:12:50.975Z,15.38
2022-12-05T14:13:58.024Z,17.15
2022-12-05T14:15:04.808Z,16.48
2022-12-05T14:16:47.329Z,17.13
2022-12-05T14:17:51.931Z,15.30
2022-12-05T14:19:05.808Z,15.57
2022-12-05T14:20:25.528Z,15.90
2022-12-05T14:21:43.001Z,16.10
2022-12-05T14:23:03.512Z,15.50
2022-12-05T14:24:14.142Z,15.23
2022-12-05T14:26:41.573Z,15.63
2022-12-05T14:27:55.649Z,15.85
2022-12-05T14:29:13.466Z,14.95
2022-12-05T14:30:25.574Z,15.65
2022-12-05T14:31:45.700Z,15.52
2022-12-05T14:32:49.776Z,15.05
2022-12-05T14:34:07.025Z,15.75
2022-12-05T14:35:14.496Z,14.82
2022-12-05T14:36:30.962Z,15.38
2022-12-05T14:37:37.766Z,15.35
2022-12-05T14:38:41.856Z,15.98
2022-12-05T14:39:47.535Z,16.45